Time;durP1;ratioP1;P1;durP2;ratioP2;P2;SDS_P1;SDS_P2;PMS_P1;PMS_P2;Temp;Humidity;BMP_temperature;BMP_pressure;BME280_temperature;BME280_humidity;BME280_pressure;Samples;Min_cycle;Max_cycle;Signal;HPM_P1;HPM_P2
2021/01/26 00:01:10;;;;;;;2.03;1.47;;;;;;;4.55;100.00;98541.69;1775731;79;20985;-74
2021/01/26 00:03:38;;;;;;;1.70;1.23;;;;;;;4.57;100.00;98538.36;1750189;80;21428;-73
2021/01/26 00:06:06;;;;;;;2.90;2.67;;;;;;;4.61;100.00;98536.19;1775388;80;21657;-74
2021/01/26 00:08:34;;;;;;;1.60;1.50;;;;;;;4.64;100.00;98533.14;1775593;80;21544;-75
2021/01/26 00:11:03;;;;;;;1.93;1.60;;;;;;;4.70;100.00;98559.25;1775586;80;21013;-75
2021/01/26 00:13:32;;;;;;;2.43;1.53;;;;;;;4.77;100.00;98552.21;1771322;80;21588;-77
2021/01/26 00:16:00;;;;;;;2.13;1.87;;;;;;;4.84;100.00;98540.32;1758174;81;21805;-75
2021/01/26 00:18:28;;;;;;;1.33;1.23;;;;;;;4.88;100.00;98545.14;1758329;81;21102;-77
2021/01/26 00:20:56;;;;;;;3.27;1.40;;;;;;;4.91;100.00;98541.30;1735375;79;20941;-74
2021/01/26 00:23:25;;;;;;;2.47;1.60;;;;;;;4.93;100.00;98554.84;1739580;82;21225;-79
2021/01/26 00:25:53;;;;;;;1.60;1.17;;;;;;;4.95;100.00;98550.15;1741488;82;21588;-74
2021/01/26 00:28:23;;;;;;;0.87;0.87;;;;;;;4.93;100.00;98554.02;1734535;82;22541;-73
2021/01/26 00:30:51;;;;;;;1.87;1.57;;;;;;;4.92;100.00;98563.05;1764413;81;21195;-77
2021/01/26 00:33:21;;;;;;;1.00;1.00;;;;;;;4.86;100.00;98552.52;1765371;81;21611;-75
2021/01/26 00:35:50;;;;;;;1.20;1.20;;;;;;;4.81;100.00;98582.99;1737402;81;20938;-75
2021/01/26 00:38:19;;;;;;;2.10;1.23;;;;;;;4.75;100.00;98560.92;1765379;81;21591;-77
2021/01/26 00:40:47;;;;;;;1.43;1.20;;;;;;;4.68;100.00;98571.47;1765197;81;21044;-75
2021/01/26 00:43:15;;;;;;;2.10;1.77;;;;;;;4.62;100.00;98565.47;1764966;81;20937;-75
2021/01/26 00:45:43;;;;;;;1.30;1.20;;;;;;;4.53;100.00;98552.59;1765218;81;21562;-75
2021/01/26 00:48:11;;;;;;;1.43;1.30;;;;;;;4.47;100.00;98567.97;1765140;81;21562;-72
2021/01/26 00:50:39;;;;;;;2.10;1.37;;;;;;;4.40;100.00;98563.47;1765275;81;21553;-76
2021/01/26 00:53:08;;;;;;;4.63;2.07;;;;;;;4.33;100.00;98571.32;1765161;81;21039;-75
2021/01/26 00:55:40;;;;;;;1.20;1.20;;;;;;;4.25;100.00;98565.95;1760884;81;21041;-74
2021/01/26 00:58:08;;;;;;;1.33;1.23;;;;;;;4.17;100.00;98569.47;1737447;81;21037;-77
2021/01/26 01:00:38;;;;;;;0.80;0.80;;;;;;;4.10;100.00;98577.83;1765188;81;21017;-75
2021/01/26 01:03:16;;;;;;;3.03;1.20;;;;;;;4.04;100.00;98580.67;1765330;81;20942;-77
2021/01/26 01:05:46;;;;;;;2.97;1.87;;;;;;;3.98;100.00;98587.52;1765300;81;21433;-77
2021/01/26 01:08:14;;;;;;;1.23;1.13;;;;;;;3.93;100.00;98582.30;1765142;81;21609;-75
2021/01/26 01:10:42;;;;;;;2.07;1.97;;;;;;;3.90;100.00;98604.05;1765290;81;21001;-75
2021/01/26 01:13:10;;;;;;;2.83;1.53;;;;;;;3.87;100.00;98605.19;1765336;81;21029;-76
2021/01/26 01:15:40;;;;;;;1.20;1.17;;;;;;;3.83;100.00;98624.42;1765353;81;21028;-75
2021/01/26 01:18:09;;;;;;;1.40;1.30;;;;;;;3.81;100.00;98619.23;1765389;81;22652;-75
2021/01/26 01:20:37;;;;;;;1.97;1.80;;;;;;;3.77;100.00;98612.03;1770814;80;21008;-76
2021/01/26 01:23:06;;;;;;;1.63;1.53;;;;;;;3.72;100.00;98617.03;1774304;80;21040;-74
2021/01/26 01:25:34;;;;;;;1.83;1.40;;;;;;;3.69;100.00;98621.35;1774326;80;20988;-74
2021/01/26 01:28:03;;;;;;;2.53;1.50;;;;;;;3.67;100.00;98618.52;1743135;82;21001;-72
2021/01/26 01:30:33;;;;;;;2.13;1.93;;;;;;;3.66;100.00;98594.11;1773652;81;21805;-75
2021/01/26 01:33:02;;;;;;;1.90;1.53;;;;;;;3.66;100.00;98640.89;1729235;81;21068;-75
2021/01/26 01:35:30;;;;;;;2.17;1.40;;;;;;;3.61;100.00;98639.55;1780218;79;21024;-74
2021/01/26 01:37:58;;;;;;;4.43;2.37;;;;;;;3.59;100.00;98653.58;1805070;79;21511;-75
2021/01/26 01:40:32;;;;;;;2.97;1.93;;;;;;;3.55;100.00;98652.20;1787830;80;20934;-75
2021/01/26 01:43:00;;;;;;;2.30;1.23;;;;;;;3.51;100.00;98648.69;1775169;80;22102;-76
2021/01/26 01:45:28;;;;;;;2.97;1.60;;;;;;;3.48;100.00;98665.03;1806849;79;20977;-74
2021/01/26 01:48:17;;;;;;;2.60;1.87;;;;;;;3.46;100.00;98660.35;1775034;80;20960;-76
2021/01/26 01:51:06;;;;;;;2.67;1.80;;;;;;;3.44;100.00;98667.19;1786654;80;20930;-75
2021/01/26 01:53:41;;;;;;;1.80;1.40;;;;;;;3.41;100.00;98662.98;1773480;80;21063;-74
2021/01/26 01:56:12;;;;;;;1.47;1.37;;;;;;;3.41;100.00;98684.36;1697656;84;21619;-76
2021/01/26 01:58:44;;;;;;;3.50;1.43;;;;;;;3.38;100.00;98660.65;1713806;83;21021;-76
2021/01/26 02:01:15;;;;;;;1.10;1.10;;;;;;;3.34;100.00;98678.48;1713870;83;21073;-74
2021/01/26 02:03:51;;;;;;;0.97;0.97;;;;;;;3.28;100.00;98691.15;1713815;83;21128;-73
2021/01/26 02:06:30;;;;;;;1.50;1.20;;;;;;;3.30;100.00;98681.97;1851997;76;26437;-73
2021/01/26 02:09:09;;;;;;;2.20;1.57;;;;;;;3.27;100.00;98706.83;1700177;83;21005;-73
2021/01/26 02:11:45;;;;;;;2.63;1.40;;;;;;;3.28;100.00;98694.66;1845628;76;27056;-74
2021/01/26 02:14:13;;;;;;;2.00;1.23;;;;;;;3.24;100.00;98707.99;1815654;79;21011;-74
2021/01/26 02:16:59;;;;;;;1.03;1.03;;;;;;;3.23;100.00;98707.64;1815745;79;21814;-74
2021/01/26 02:20:00;;;;;;;0.60;0.60;;;;;;;3.20;100.00;98721.30;1769991;81;21081;-73
2021/01/26 02:23:03;;;;;;;1.30;1.20;;;;;;;3.10;100.00;98731.23;1770101;81;21014;-73
2021/01/26 02:26:25;;;;;;;0.73;0.73;;;;;;;2.98;100.00;98731.49;1772294;79;21050;-74
2021/01/26 02:29:05;;;;;;;0.93;0.63;;;;;;;2.88;100.00;98738.74;1801950;79;20960;-73
2021/01/26 02:32:05;;;;;;;0.80;0.80;;;;;;;2.79;100.00;98757.85;1902158;74;26657;-73
2021/01/26 02:34:59;;;;;;;0.50;0.50;;;;;;;2.71;100.00;98762.27;1878723;76;20976;-73
2021/01/26 02:38:01;;;;;;;1.80;1.40;;;;;;;2.63;100.00;98776.39;1794631;79;21831;-72
2021/01/26 02:40:44;;;;;;;0.60;0.60;;;;;;;2.57;100.00;98784.51;1820388;78;20910;-76
2021/01/26 02:43:34;;;;;;;0.95;0.95;;;;;;;2.50;100.00;98811.45;1694377;84;21037;-72
2021/01/26 02:46:42;;;;;;;0.83;0.83;;;;;;;2.50;100.00;98789.24;1845037;76;26833;-74
2021/01/26 02:49:22;;;;;;;0.77;0.77;;;;;;;2.42;100.00;98811.34;1815577;79;20924;-74
2021/01/26 02:52:12;;;;;;;;;;;;;;;2.38;100.00;98825.48;1818250;79;21364;-74
2021/01/26 02:55:03;;;;;;;0.80;0.47;;;;;;;2.36;100.00;98811.45;1815507;79;20169;-74
2021/01/26 02:57:46;;;;;;;1.60;0.40;;;;;;;2.28;100.00;98826.02;1804280;79;20989;-74
2021/01/26 03:00:21;;;;;;;1.00;0.60;;;;;;;2.24;100.00;98824.14;1728452;83;21016;-73
2021/01/26 03:03:03;;;;;;;1.37;0.60;;;;;;;2.23;100.00;98844.28;1725741;81;20933;-75
2021/01/26 03:05:44;;;;;;;0.67;0.67;;;;;;;2.19;100.00;98824.23;1728326;83;22212;-73
2021/01/26 03:08:17;;;;;;;0.80;0.80;;;;;;;2.17;100.00;98816.89;1702092;83;21082;-72
2021/01/26 03:10:58;;;;;;;0.87;0.77;;;;;;;2.14;100.00;98807.34;1810902;77;26764;-75
2021/01/26 03:13:27;;;;;;;0.67;0.53;;;;;;;2.03;100.00;98814.20;1782447;79;21029;-74
2021/01/26 03:16:00;;;;;;;1.03;0.77;;;;;;;1.92;100.00;98825.89;1752302;80;22696;-72
2021/01/26 03:18:49;;;;;;;0.37;0.37;;;;;;;1.82;100.00;98831.73;1735836;81;21047;-73
2021/01/26 03:21:18;;;;;;;0.60;0.60;;;;;;;1.74;100.00;98848.46;1736163;82;21043;-73
2021/01/26 03:23:58;;;;;;;0.47;0.47;;;;;;;1.66;100.00;98869.15;1735921;81;21035;-74
2021/01/26 03:26:27;;;;;;;0.80;0.80;;;;;;;1.61;100.00;98861.23;1736010;82;21019;-73
2021/01/26 03:28:58;;;;;;;0.60;0.57;;;;;;;1.56;100.00;98871.02;1735973;82;21677;-74
2021/01/26 03:31:47;;;;;;;0.70;0.70;;;;;;;1.53;100.00;98869.12;1725604;81;21052;-73
2021/01/26 03:34:22;;;;;;;1.10;0.73;;;;;;;1.49;100.00;98871.23;1845444;76;27116;-74
2021/01/26 03:36:50;;;;;;;1.30;1.13;;;;;;;1.43;100.00;98895.25;1815441;79;20992;-74
2021/01/26 03:39:19;;;;;;;1.33;0.80;;;;;;;1.40;100.00;98902.22;1815387;78;21811;-74
2021/01/26 03:41:47;;;;;;;0.80;0.80;;;;;;;1.37;100.00;98897.66;1815367;79;20969;-74
2021/01/26 03:44:15;;;;;;;0.50;0.50;;;;;;;1.33;100.00;98917.91;1815497;79;21028;-73
2021/01/26 03:46:51;;;;;;;0.80;0.80;;;;;;;1.31;100.00;98921.20;1815394;78;21083;-76
2021/01/26 03:49:59;;;;;;;0.87;0.87;;;;;;;1.29;100.00;98907.66;1812484;79;20921;-73
2021/01/26 03:52:47;;;;;;;0.70;0.70;;;;;;;1.27;100.00;98914.95;1815683;79;21811;-79
2021/01/26 03:55:31;;;;;;;0.50;0.50;;;;;;;1.27;100.00;98932.27;1811378;79;21044;-83
2021/01/26 03:58:20;;;;;;;1.70;1.33;;;;;;;1.26;100.00;98925.27;1815902;79;20965;-80
2021/01/26 04:01:04;;;;;;;0.77;0.77;;;;;;;1.25;100.00;98958.20;1746869;81;21021;-82
2021/01/26 04:03:49;;;;;;;0.60;0.60;;;;;;;1.22;100.00;98963.33;1747061;82;21592;-81
2021/01/26 04:06:35;;;;;;;0.70;0.70;;;;;;;1.22;100.00;98958.47;1746048;82;21199;-80
2021/01/26 04:09:12;;;;;;;0.93;0.90;;;;;;;1.19;100.00;98970.72;1747008;82;21024;-82
2021/01/26 04:11:58;;;;;;;1.53;1.43;;;;;;;1.19;100.00;99003.53;1846142;76;26629;-84
2021/01/26 04:14:39;;;;;;;0.73;0.73;;;;;;;1.13;100.00;98988.95;1815918;78;20999;-84
2021/01/26 04:17:14;;;;;;;1.43;1.33;;;;;;;1.14;100.00;98999.94;1770920;81;21811;-82
2021/01/26 04:19:49;;;;;;;1.10;1.10;;;;;;;1.12;100.00;99007.73;1770943;81;21606;-83
2021/01/26 04:22:17;;;;;;;1.00;1.00;;;;;;;1.09;100.00;99013.31;1770979;81;21044;-83
2021/01/26 04:24:46;;;;;;;1.97;1.17;;;;;;;1.08;100.00;99024.93;1771032;81;20988;-84
2021/01/26 04:27:20;;;;;;;1.70;1.33;;;;;;;1.09;100.00;99026.13;1771252;81;21017;-82
2021/01/26 04:29:48;;;;;;;2.17;1.13;;;;;;;1.09;100.00;99046.59;1770747;81;22201;-80
2021/01/26 04:32:21;;;;;;;3.03;1.37;;;;;;;1.07;100.00;99050.72;1771141;81;20953;-83
2021/01/26 04:34:49;;;;;;;1.30;1.10;;;;;;;1.07;100.00;99042.73;1771534;81;21056;-83
2021/01/26 04:37:16;;;;;;;1.23;1.13;;;;;;;1.08;100.00;99056.41;1771321;81;20957;-81
2021/01/26 04:39:44;;;;;;;3.83;1.63;;;;;;;1.08;100.00;99071.05;1771011;81;20971;-80
2021/01/26 04:42:17;;;;;;;1.43;1.33;;;;;;;1.09;100.00;99075.38;1771246;79;21024;-82
2021/01/26 04:45:14;;;;;;;0.90;0.90;;;;;;;1.13;100.00;99059.98;1853928;76;27224;-80
2021/01/26 04:47:51;;;;;;;2.40;1.57;;;;;;;1.08;100.00;99085.70;1783650;80;20931;-80
2021/01/26 04:50:44;;;;;;;2.10;1.30;;;;;;;1.06;100.00;99094.31;1816209;78;21134;-82
2021/01/26 04:53:25;;;;;;;0.80;0.80;;;;;;;1.06;100.00;99102.77;1816228;79;20962;-81
2021/01/26 04:56:13;;;;;;;1.10;0.83;;;;;;;1.05;100.00;99084.63;1816295;79;21016;-82
2021/01/26 04:58:58;;;;;;;0.90;0.90;;;;;;;1.05;100.00;99089.12;1816728;79;21008;-84
2021/01/26 05:02:15;;;;;;;1.13;1.10;;;;;;;1.07;100.00;99085.83;1846509;76;26798;-87
2021/01/26 05:04:53;;;;;;;1.33;1.03;;;;;;;1.00;100.00;99093.50;1815570;79;20968;-72
2021/01/26 05:07:26;;;;;;;0.80;0.80;;;;;;;0.96;100.00;99090.75;1728742;81;21376;-72
2021/01/26 05:10:09;;;;;;;0.90;0.90;;;;;;;0.99;100.00;99100.28;1810859;77;26907;-73
2021/01/26 05:12:47;;;;;;;1.73;1.10;;;;;;;0.95;100.00;99115.67;1782421;80;21624;-74
2021/01/26 05:15:22;;;;;;;1.03;0.80;;;;;;;0.94;100.00;99124.66;1782322;80;21615;-72
2021/01/26 05:17:57;;;;;;;0.60;0.60;;;;;;;0.94;100.00;99125.49;1782367;80;20993;-72
2021/01/26 05:20:45;;;;;;;0.83;0.80;;;;;;;0.97;100.00;99118.21;1890193;76;26586;-72
2021/01/26 05:23:18;;;;;;;0.60;0.60;;;;;;;0.91;100.00;99129.73;1809282;79;21538;-72
2021/01/26 05:25:54;;;;;;;1.23;1.10;;;;;;;0.92;100.00;99134.56;1890220;76;27216;-74
2021/01/26 05:28:22;;;;;;;0.57;0.57;;;;;;;0.87;100.00;99166.09;1861162;77;20919;-72
2021/01/26 05:30:56;;;;;;;1.33;1.23;;;;;;;0.85;100.00;99156.03;1861001;77;21260;-74
2021/01/26 05:33:23;;;;;;;3.02;1.62;;;;;;;0.84;100.00;99179.64;1828570;77;21504;-74
2021/01/26 05:35:55;;;;;;;3.53;2.20;;;;;;;0.84;100.00;99189.80;1861172;77;20990;-74
2021/01/26 05:38:23;;;;;;;1.83;1.07;;;;;;;0.82;100.00;99182.93;1861128;77;20966;-73
2021/01/26 05:40:57;;;;;;;0.70;0.70;;;;;;;0.80;100.00;99186.18;1861136;77;20962;-74
2021/01/26 05:43:30;;;;;;;1.07;1.03;;;;;;;0.80;100.00;99167.09;1861550;77;21049;-73
2021/01/26 05:46:01;;;;;;;2.22;1.55;;;;;;;0.80;100.00;99208.34;1861441;77;21055;-72
2021/01/26 05:48:44;;;;;;;1.57;1.47;;;;;;;0.82;100.00;99217.52;1861100;77;21018;-71
2021/01/26 05:51:24;;;;;;;1.17;1.17;;;;;;;0.83;100.00;99223.19;1746311;82;21058;-72
2021/01/26 05:53:57;;;;;;;1.70;1.20;;;;;;;0.84;100.00;99229.72;1747147;82;21082;-74
2021/01/26 05:56:52;;;;;;;4.17;2.47;;;;;;;0.87;100.00;99241.45;1843562;76;26813;-72
2021/01/26 05:59:32;;;;;;;2.60;2.03;;;;;;;0.86;100.00;99255.71;1815609;79;21239;-72
2021/01/26 06:02:15;;;;;;;2.40;1.23;;;;;;;0.88;100.00;99263.58;1815461;79;21191;-72
2021/01/26 06:04:44;;;;;;;1.07;1.03;;;;;;;0.89;100.00;99258.62;1728492;81;20976;-73
2021/01/26 06:07:25;;;;;;;1.40;1.30;;;;;;;0.92;100.00;99273.85;1728329;80;21514;-76
2021/01/26 06:09:53;;;;;;;1.60;1.50;;;;;;;0.95;100.00;99286.05;1728820;83;22442;-80
2021/01/26 06:12:25;;;;;;;1.40;1.20;;;;;;;0.97;100.00;99284.09;1728260;83;20940;-67
2021/01/26 06:15:01;;;;;;;1.27;1.20;;;;;;;1.00;100.00;99294.99;1728591;83;21201;-73
2021/01/26 06:17:33;;;;;;;1.23;1.23;;;;;;;1.03;100.00;99294.74;1727947;83;20964;-72
2021/01/26 06:20:23;;;;;;;1.53;1.30;;;;;;;1.09;100.00;99291.05;1852256;76;26724;-73
2021/01/26 06:22:52;;;;;;;2.08;1.45;;;;;;;1.09;100.00;99303.03;1782971;80;21010;-72
2021/01/26 06:25:26;;;;;;;1.60;1.50;;;;;;;1.13;100.00;99319.14;1855446;77;22516;-73
2021/01/26 06:28:15;;;;;;;2.60;1.67;;;;;;;1.14;100.00;99320.80;1824355;77;21523;-77
2021/01/26 06:31:14;;;;;;;2.47;1.47;;;;;;;1.16;100.00;99314.02;1855022;77;20945;-79
2021/01/26 06:34:00;;;;;;;1.90;1.80;;;;;;;1.19;100.00;99321.77;1822122;78;21480;-79
2021/01/26 06:36:52;;;;;;;1.13;0.90;;;;;;;1.21;100.00;99330.47;1823207;78;20956;-83
2021/01/26 06:39:41;;;;;;;2.10;1.43;;;;;;;1.24;100.00;99349.33;1822906;78;21421;-82
2021/01/26 06:42:33;;;;;;;2.10;1.40;;;;;;;1.26;100.00;99346.07;1822975;78;21055;-80
2021/01/26 06:45:37;;;;;;;1.83;1.73;;;;;;;1.32;100.00;99333.06;1822793;78;21169;-80
2021/01/26 06:48:30;;;;;;;3.95;1.95;;;;;;;1.34;100.00;99335.59;1824431;78;21074;-80
2021/01/26 06:51:28;;;;;;;0.93;0.93;;;;;;;1.37;100.00;99330.02;1820553;78;20885;-79
2021/01/26 06:54:13;;;;;;;1.93;1.60;;;;;;;1.41;100.00;99326.11;1824833;78;21360;-77
2021/01/26 06:57:09;;;;;;;8.40;1.33;;;;;;;1.43;100.00;99333.48;1820514;78;21011;-80
2021/01/26 07:00:10;;;;;;;3.80;1.77;;;;;;;1.46;100.00;99332.39;1743888;79;21462;-76
2021/01/26 07:03:19;;;;;;;2.30;1.57;;;;;;;1.50;100.00;99346.64;1742266;82;21096;-83
2021/01/26 07:06:23;;;;;;;1.50;1.40;;;;;;;1.54;100.00;99356.58;1723022;82;21212;-74
2021/01/26 07:09:14;;;;;;;1.25;1.15;;;;;;;1.56;100.00;99361.28;1748583;82;21692;-77
2021/01/26 07:11:54;;;;;;;2.00;1.80;;;;;;;1.58;100.00;99364.66;1748586;82;21093;-76
2021/01/26 07:14:57;;;;;;;3.27;1.97;;;;;;;1.61;100.00;99364.41;1743010;82;21033;-75
2021/01/26 07:18:15;;;;;;;3.80;2.53;;;;;;;1.68;100.00;99365.58;1852456;76;26589;-74
2021/01/26 07:21:24;;;;;;;0.90;0.90;;;;;;;1.67;100.00;99372.37;1783016;80;21391;-74
2021/01/26 07:24:39;;;;;;;2.37;2.07;;;;;;;1.69;100.00;99381.91;1822264;78;21816;-74
2021/01/26 07:27:33;;;;;;;2.73;2.20;;;;;;;1.72;100.00;99383.48;1721929;83;21033;-75
2021/01/26 07:30:26;;;;;;;3.53;2.30;;;;;;;1.75;100.00;99411.69;1722934;83;21005;-88
2021/01/26 07:33:16;;;;;;;4.30;2.70;;;;;;;1.77;100.00;99418.59;1741934;82;21037;-80
2021/01/26 07:36:10;;;;;;;5.33;3.67;;;;;;;1.84;100.00;99411.77;1852506;76;26666;-78
2021/01/26 07:38:52;;;;;;;3.52;2.33;;;;;;;1.84;100.00;99418.42;1751866;81;21025;-80
2021/01/26 07:41:38;;;;;;;2.67;2.33;;;;;;;1.93;100.00;99420.80;1852398;76;26832;-79
2021/01/26 07:44:27;;;;;;;2.40;2.20;;;;;;;1.94;100.00;99433.14;1832714;77;20916;-81
2021/01/26 07:47:33;;;;;;;2.47;2.13;;;;;;;2.01;100.00;99437.47;1803064;79;21825;-82
2021/01/26 07:50:36;;;;;;;2.03;1.93;;;;;;;2.07;100.00;99443.59;1777275;79;20973;-77
2021/01/26 07:53:23;;;;;;;2.77;2.23;;;;;;;2.17;100.00;99445.84;1873808;76;26883;-81
2021/01/26 07:56:23;;;;;;;1.97;1.87;;;;;;;2.18;100.00;99455.54;1828182;77;20885;-82
2021/01/26 07:58:51;;;;;;;1.47;1.37;;;;;;;2.25;100.00;99459.87;1739509;82;21036;-76
2021/01/26 08:01:20;;;;;;;2.43;2.23;;;;;;;2.34;100.00;99467.54;1778329;80;21045;-88
2021/01/26 08:03:49;;;;;;;4.10;2.17;;;;;;;2.40;100.00;99470.53;1741233;81;20944;-79
2021/01/26 08:06:39;;;;;;;3.90;2.20;;;;;;;2.48;100.00;99471.22;1749139;81;21010;-78
2021/01/26 08:09:26;;;;;;;3.10;1.60;;;;;;;2.58;100.00;99464.08;1877785;74;26654;-76
2021/01/26 08:12:13;;;;;;;3.60;1.83;;;;;;;2.65;100.00;99467.90;1865039;76;27004;-77
2021/01/26 08:14:50;;;;;;;2.43;2.07;;;;;;;2.67;100.00;99473.11;1788554;80;20958;-75
2021/01/26 08:17:31;;;;;;;1.97;1.70;;;;;;;2.70;100.00;99464.00;1787581;80;21632;-78
2021/01/26 08:20:23;;;;;;;1.37;1.27;;;;;;;2.73;100.00;99476.59;1786046;80;21203;-75
2021/01/26 08:23:07;;;;;;;2.50;2.20;;;;;;;2.77;100.00;99474.00;1775247;80;21001;-75
2021/01/26 08:25:41;;;;;;;3.50;2.60;;;;;;;2.80;100.00;99474.23;1783583;79;20937;-76
2021/01/26 08:28:13;;;;;;;5.17;3.07;;;;;;;2.82;100.00;99466.92;1755153;80;21013;-75
2021/01/26 08:30:50;;;;;;;1.87;1.70;;;;;;;2.85;100.00;99469.30;1783557;80;21557;-80
2021/01/26 08:33:27;;;;;;;1.30;1.20;;;;;;;2.90;100.00;99474.25;1777471;80;21449;-76
2021/01/26 08:36:29;;;;;;;3.77;2.80;;;;;;;2.94;100.00;99477.86;1870369;76;27104;-78
2021/01/26 08:39:07;;;;;;;6.13;2.07;;;;;;;2.92;100.00;99475.82;1833993;77;20973;-76
2021/01/26 08:41:48;;;;;;;5.40;2.87;;;;;;;2.98;100.00;99470.42;1841705;77;21187;-77
2021/01/26 08:44:29;;;;;;;5.15;2.80;;;;;;;3.07;100.00;99477.61;1851586;76;20999;-77
2021/01/26 08:46:58;;;;;;;5.07;2.47;;;;;;;3.19;100.00;99469.83;1849255;77;20989;-80
2021/01/26 08:49:33;;;;;;;3.63;2.43;;;;;;;3.31;100.00;99480.39;1827547;78;21443;-81
2021/01/26 08:52:25;;;;;;;7.40;3.37;;;;;;;3.37;100.00;99470.00;1839189;77;20917;-74
2021/01/26 08:54:55;;;;;;;5.70;2.73;;;;;;;3.41;100.00;99474.57;1836546;77;21644;-74
2021/01/26 08:57:35;;;;;;;3.43;2.40;;;;;;;3.46;100.00;99468.82;1839567;77;21534;-74
2021/01/26 09:00:26;;;;;;;3.87;2.20;;;;;;;3.50;100.00;99479.08;1843327;77;20935;-75
2021/01/26 09:02:55;;;;;;;3.23;2.10;;;;;;;3.53;100.00;99458.75;1839663;77;21605;-75
2021/01/26 09:05:41;;;;;;;6.07;2.53;;;;;;;3.57;100.00;99450.80;1838404;77;20922;-73
2021/01/26 09:08:11;;;;;;;15.03;6.83;;;;;;;3.61;100.00;99438.86;1831821;77;21799;-74
2021/01/26 09:10:49;;;;;;;4.57;2.60;;;;;;;3.71;100.00;99426.80;1810603;77;21116;-78
2021/01/26 09:13:27;;;;;;;4.50;2.60;;;;;;;3.87;100.00;99433.41;1831402;77;20992;-70
2021/01/26 09:16:00;;;;;;;7.07;2.10;;;;;;;4.05;100.00;99432.18;1808550;78;21201;-71
2021/01/26 09:18:36;;;;;;;15.23;2.47;;;;;;;4.25;100.00;99432.49;1831353;77;26697;-72
2021/01/26 09:21:10;;;;;;;4.97;2.50;;;;;;;4.27;100.00;99409.61;1807821;78;20986;-71
2021/01/26 09:23:38;;;;;;;2.75;2.05;;;;;;;4.27;100.00;99404.25;1826693;77;21530;-74
2021/01/26 09:26:17;;;;;;;2.47;2.27;;;;;;;4.25;100.00;99380.31;1830827;77;21471;-71
2021/01/26 09:28:48;;;;;;;2.43;1.73;;;;;;;4.25;100.00;99387.00;1822020;78;21010;-78
2021/01/26 09:31:22;;;;;;;5.60;2.10;;;;;;;4.26;100.00;99414.09;1826079;76;20917;-77
2021/01/26 09:34:06;;;;;;;3.80;1.83;;;;;;;4.29;100.00;99428.53;1822021;78;21121;-77
2021/01/26 09:36:35;;;;;;;2.03;1.53;;;;;;;4.33;100.00;99423.72;1829495;76;20983;-77
2021/01/26 09:39:10;;;;;;;4.27;2.37;;;;;;;4.38;100.00;99434.34;1827975;77;20993;-76
2021/01/26 09:41:38;;;;;;;5.77;2.90;;;;;;;4.35;100.00;99429.77;1827601;77;21005;-71
2021/01/26 09:44:13;;;;;;;2.53;2.30;;;;;;;4.29;100.00;99427.19;1821354;78;20935;-72
2021/01/26 09:46:52;;;;;;;2.33;1.67;;;;;;;4.28;100.00;99434.86;1821458;78;20979;-73
2021/01/26 09:49:25;;;;;;;4.30;2.57;;;;;;;4.25;100.00;99423.59;1681370;84;22121;-72
2021/01/26 09:52:05;;;;;;;4.17;1.82;;;;;;;4.27;100.00;99429.68;1696056;83;21060;-74
2021/01/26 09:54:36;;;;;;;2.53;2.00;;;;;;;4.28;100.00;99431.34;1666598;85;21232;-74
2021/01/26 09:57:04;;;;;;;4.33;2.53;;;;;;;4.26;100.00;99430.15;1659325;86;21644;-73
2021/01/26 09:59:34;;;;;;;4.77;2.10;;;;;;;4.22;100.00;99428.77;1680588;85;21117;-73
2021/01/26 10:02:09;;;;;;;2.40;1.87;;;;;;;4.19;100.00;99431.22;1672539;85;21369;-73
2021/01/26 10:04:38;;;;;;;5.07;1.93;;;;;;;4.18;100.00;99440.25;1654789;84;21244;-74
2021/01/26 10:07:11;;;;;;;2.87;1.67;;;;;;;4.18;100.00;99442.09;1667092;85;21179;-74
2021/01/26 10:09:42;;;;;;;2.33;1.73;;;;;;;4.15;100.00;99439.19;1656575;85;21024;-74
2021/01/26 10:12:26;;;;;;;1.93;1.73;;;;;;;4.16;100.00;99429.33;1670268;85;21108;-71
2021/01/26 10:15:18;;;;;;;4.10;1.53;;;;;;;4.18;100.00;99444.77;1675571;84;22937;-72
2021/01/26 10:17:52;;;;;;;5.03;1.70;;;;;;;4.17;100.00;99439.05;1673666;85;21013;-72
2021/01/26 10:20:38;;;;;;;4.23;2.07;;;;;;;4.26;100.00;99431.98;1835605;76;26983;-75
2021/01/26 10:23:12;;;;;;;5.60;2.40;;;;;;;4.31;100.00;99447.13;1698589;84;21092;-73
2021/01/26 10:25:46;;;;;;;3.25;2.30;;;;;;;4.44;100.00;99438.77;1698858;82;22016;-73
2021/01/26 10:28:24;;;;;;;4.47;2.00;;;;;;;4.49;100.00;99447.20;1728636;83;21008;-72
2021/01/26 10:30:53;;;;;;;2.53;2.07;;;;;;;4.51;100.00;99438.02;1715179;82;21024;-71
2021/01/26 10:33:39;;;;;;;3.67;2.27;;;;;;;4.54;100.00;99427.52;1696936;82;21232;-73
2021/01/26 10:36:32;;;;;;;3.77;2.20;;;;;;;4.58;100.00;99415.52;1841177;77;26785;-72
2021/01/26 10:39:23;;;;;;;3.20;1.70;;;;;;;4.54;100.00;99421.66;1827782;77;21025;-70
2021/01/26 10:41:58;;;;;;;5.37;1.80;;;;;;;4.51;100.00;99413.92;1804104;79;21816;-75
2021/01/26 10:44:26;;;;;;;5.37;2.67;;;;;;;4.49;100.00;99409.72;1840552;77;21024;-75
2021/01/26 10:46:54;;;;;;;4.20;2.10;;;;;;;4.48;100.00;99403.53;1830093;77;20982;-72
2021/01/26 10:49:31;;;;;;;2.70;1.53;;;;;;;4.44;100.00;99394.08;1797634;77;21101;-71
2021/01/26 10:52:05;;;;;;;3.63;2.67;;;;;;;4.39;100.00;99392.34;1838169;77;20958;-76
2021/01/26 10:54:34;;;;;;;1.77;1.67;;;;;;;4.38;100.00;99378.13;1840839;77;21538;-75
2021/01/26 10:57:03;;;;;;;3.80;2.07;;;;;;;4.42;100.00;99365.79;1822119;78;21444;-76
2021/01/26 10:59:31;;;;;;;6.43;2.23;;;;;;;4.46;100.00;99361.34;1822179;78;20938;-74
2021/01/26 11:01:59;;;;;;;3.37;1.80;;;;;;;4.52;100.00;99367.93;1822186;78;21127;-76
2021/01/26 11:04:28;;;;;;;5.30;2.77;;;;;;;4.55;100.00;99371.16;1822217;78;20987;-77
2021/01/26 11:06:56;;;;;;;2.90;2.17;;;;;;;4.59;100.00;99365.51;1822401;78;21010;-76
2021/01/26 11:09:26;;;;;;;2.87;1.77;;;;;;;4.64;100.00;99365.88;1822689;78;21316;-77
2021/01/26 11:11:54;;;;;;;2.73;1.80;;;;;;;4.65;100.00;99361.72;1822468;78;21579;-77
2021/01/26 11:14:22;;;;;;;4.67;2.63;;;;;;;4.66;100.00;99359.90;1822186;78;20974;-77
2021/01/26 11:16:50;;;;;;;4.60;2.27;;;;;;;4.68;100.00;99349.88;1822441;78;21021;-77
2021/01/26 11:19:29;;;;;;;4.47;1.57;;;;;;;4.72;100.00;99349.91;1827652;77;21663;-81
2021/01/26 11:22:01;;;;;;;2.10;1.93;;;;;;;4.72;100.00;99355.27;1836831;76;21578;-78
2021/01/26 11:24:29;;;;;;;5.63;2.97;;;;;;;4.74;100.00;99363.99;1832144;77;20967;-79
2021/01/26 11:26:58;;;;;;;6.63;3.03;;;;;;;4.78;100.00;99376.59;1827776;77;21001;-79
2021/01/26 11:29:26;;;;;;;5.50;2.10;;;;;;;4.83;100.00;99362.25;1822325;77;21590;-78
2021/01/26 11:31:55;;;;;;;4.43;2.00;;;;;;;4.82;100.00;99374.81;1821638;78;21499;-76
2021/01/26 11:34:23;;;;;;;4.83;2.30;;;;;;;4.77;100.00;99374.92;1826578;77;21038;-76
2021/01/26 11:36:51;;;;;;;2.90;2.03;;;;;;;4.68;100.00;99381.51;1826775;77;21108;-76
2021/01/26 11:39:19;;;;;;;4.23;2.43;;;;;;;4.62;100.00;99370.55;1821985;78;20983;-75
2021/01/26 11:41:47;;;;;;;3.77;2.20;;;;;;;4.59;100.00;99369.02;1793222;79;20998;-74
2021/01/26 11:44:18;;;;;;;4.40;2.83;;;;;;;4.59;100.00;99374.38;1832537;77;21872;-77
2021/01/26 11:46:46;;;;;;;3.03;1.53;;;;;;;4.53;100.00;99388.34;1826424;77;20992;-79
2021/01/26 11:49:15;;;;;;;7.00;2.97;;;;;;;4.44;100.00;99395.92;1822509;78;20946;-76
2021/01/26 11:51:43;;;;;;;4.30;2.70;;;;;;;4.34;100.00;99410.20;1828335;77;20959;-79
2021/01/26 11:54:12;;;;;;;3.20;2.27;;;;;;;4.27;100.00;99397.56;1821737;78;20966;-75
2021/01/26 11:56:40;;;;;;;4.10;1.93;;;;;;;4.25;100.00;99398.17;1825312;77;21532;-78
2021/01/26 11:59:09;;;;;;;5.13;2.60;;;;;;;4.22;100.00;99419.90;1822838;77;20983;-78
2021/01/26 12:01:38;;;;;;;7.97;3.33;;;;;;;4.17;100.00;99413.13;1821351;78;21002;-80
2021/01/26 12:04:06;;;;;;;4.90;2.73;;;;;;;4.11;100.00;99388.81;1821137;78;21552;-77
2021/01/26 12:06:34;;;;;;;4.47;2.53;;;;;;;4.07;100.00;99384.25;1830068;77;21512;-78
2021/01/26 12:09:04;;;;;;;5.33;2.13;;;;;;;4.05;100.00;99390.21;1825560;77;21880;-78
2021/01/26 12:11:32;;;;;;;3.00;2.60;;;;;;;4.06;100.00;99379.87;1821195;78;21165;-79
2021/01/26 12:14:01;;;;;;;6.97;4.03;;;;;;;4.06;100.00;99378.53;1821012;78;21607;-78
2021/01/26 12:16:29;;;;;;;6.83;3.70;;;;;;;4.07;100.00;99370.87;1830062;77;21017;-78
2021/01/26 12:18:58;;;;;;;5.20;3.37;;;;;;;4.07;100.00;99391.41;1821037;78;21001;-77
2021/01/26 12:21:26;;;;;;;7.40;3.37;;;;;;;4.06;100.00;99401.27;1821259;78;22031;-78
2021/01/26 12:23:54;;;;;;;6.57;2.93;;;;;;;4.05;100.00;99401.41;1825895;77;20998;-78